sensor_id;sensor_type;location;lat;lon;timestamp;temperature;humidity
36652;DHT22;53334;51.976;20.144;2023-04-25T00:00:14;26.80;45.70
36652;DHT22;53334;51.976;20.144;2023-04-25T00:02:48;26.80;45.70
36652;DHT22;53334;51.976;20.144;2023-04-25T00:05:22;26.80;45.60
36652;DHT22;53334;51.976;20.144;2023-04-25T00:07:56;26.80;46.10
36652;DHT22;53334;51.976;20.144;2023-04-25T00:10:30;26.80;45.60
36652;DHT22;53334;51.976;20.144;2023-04-25T00:13:03;26.80;45.30
36652;DHT22;53334;51.976;20.144;2023-04-25T00:15:36;26.80;45.50
36652;DHT22;53334;51.976;20.144;2023-04-25T00:18:12;26.80;45.60
36652;DHT22;53334;51.976;20.144;2023-04-25T00:20:45;26.80;45.70
36652;DHT22;53334;51.976;20.144;2023-04-25T00:23:18;26.80;45.70
36652;DHT22;53334;51.976;20.144;2023-04-25T00:25:51;26.90;45.90
36652;DHT22;53334;51.976;20.144;2023-04-25T00:28:24;26.80;45.90
36652;DHT22;53334;51.976;20.144;2023-04-25T00:30:58;26.90;46.60
36652;DHT22;53334;51.976;20.144;2023-04-25T00:33:32;26.80;46.50
36652;DHT22;53334;51.976;20.144;2023-04-25T00:36:07;26.80;46.00
36652;DHT22;53334;51.976;20.144;2023-04-25T00:38:40;26.80;46.00
36652;DHT22;53334;51.976;20.144;2023-04-25T00:41:14;26.80;46.10
36652;DHT22;53334;51.976;20.144;2023-04-25T00:43:48;26.90;46.10
36652;DHT22;53334;51.976;20.144;2023-04-25T00:46:22;26.90;46.20
36652;DHT22;53334;51.976;20.144;2023-04-25T00:48:57;26.90;46.20
36652;DHT22;53334;51.976;20.144;2023-04-25T00:51:31;26.90;46.20
36652;DHT22;53334;51.976;20.144;2023-04-25T00:54:06;26.90;46.20
36652;DHT22;53334;51.976;20.144;2023-04-25T00:56:39;26.90;46.80
36652;DHT22;53334;51.976;20.144;2023-04-25T00:59:14;26.90;46.30
36652;DHT22;53334;51.976;20.144;2023-04-25T01:01:47;26.90;46.30
36652;DHT22;53334;51.976;20.144;2023-04-25T01:04:22;26.90;46.30
36652;DHT22;53334;51.976;20.144;2023-04-25T01:06:57;26.90;46.40
36652;DHT22;53334;51.976;20.144;2023-04-25T01:09:31;26.90;47.00
36652;DHT22;53334;51.976;20.144;2023-04-25T01:12:05;26.90;46.50
36652;DHT22;53334;51.976;20.144;2023-04-25T01:14:39;26.90;46.50
36652;DHT22;53334;51.976;20.144;2023-04-25T01:17:13;26.90;46.50
36652;DHT22;53334;51.976;20.144;2023-04-25T01:19:48;26.90;46.50
36652;DHT22;53334;51.976;20.144;2023-04-25T01:22:24;26.90;46.60
36652;DHT22;53334;51.976;20.144;2023-04-25T01:24:57;26.90;46.50
36652;DHT22;53334;51.976;20.144;2023-04-25T01:27:31;26.90;46.50
36652;DHT22;53334;51.976;20.144;2023-04-25T01:30:06;26.90;46.40
36652;DHT22;53334;51.976;20.144;2023-04-25T01:32:40;26.90;46.50
36652;DHT22;53334;51.976;20.144;2023-04-25T01:35:14;26.90;46.60
36652;DHT22;53334;51.976;20.144;2023-04-25T01:37:49;26.90;46.60
36652;DHT22;53334;51.976;20.144;2023-04-25T01:40:24;26.90;46.60
36652;DHT22;53334;51.976;20.144;2023-04-25T01:42:57;26.90;46.70
36652;DHT22;53334;51.976;20.144;2023-04-25T01:45:31;27.00;46.80
36652;DHT22;53334;51.976;20.144;2023-04-25T01:48:05;26.90;46.70
36652;DHT22;53334;51.976;20.144;2023-04-25T01:50:39;26.90;46.50
36652;DHT22;53334;51.976;20.144;2023-04-25T01:53:15;26.90;46.30
36652;DHT22;53334;51.976;20.144;2023-04-25T01:55:49;26.90;46.20
36652;DHT22;53334;51.976;20.144;2023-04-25T01:58:26;26.90;46.10
36652;DHT22;53334;51.976;20.144;2023-04-25T02:01:11;26.90;46.20
36652;DHT22;53334;51.976;20.144;2023-04-25T02:03:50;26.90;46.10
36652;DHT22;53334;51.976;20.144;2023-04-25T02:06:33;26.80;46.10
36652;DHT22;53334;51.976;20.144;2023-04-25T02:09:08;26.80;46.10
36652;DHT22;53334;51.976;20.144;2023-04-25T02:11:46;26.80;46.20
36652;DHT22;53334;51.976;20.144;2023-04-25T02:14:38;26.80;46.60
36652;DHT22;53334;51.976;20.144;2023-04-25T02:17:28;26.80;47.10
36652;DHT22;53334;51.976;20.144;2023-04-25T02:20:04;26.80;47.30
36652;DHT22;53334;51.976;20.144;2023-04-25T02:22:38;26.80;47.50
36652;DHT22;53334;51.976;20.144;2023-04-25T02:25:13;26.70;47.40
36652;DHT22;53334;51.976;20.144;2023-04-25T02:27:48;26.70;47.50
36652;DHT22;53334;51.976;20.144;2023-04-25T02:30:22;26.70;47.70
36652;DHT22;53334;51.976;20.144;2023-04-25T02:32:55;26.80;47.70
36652;DHT22;53334;51.976;20.144;2023-04-25T02:35:29;26.70;47.70
36652;DHT22;53334;51.976;20.144;2023-04-25T02:38:02;26.70;47.80
36652;DHT22;53334;51.976;20.144;2023-04-25T02:40:38;26.70;47.70
36652;DHT22;53334;51.976;20.144;2023-04-25T02:43:12;26.70;47.90
36652;DHT22;53334;51.976;20.144;2023-04-25T02:45:45;26.70;48.00
36652;DHT22;53334;51.976;20.144;2023-04-25T02:48:19;26.70;48.00
36652;DHT22;53334;51.976;20.144;2023-04-25T02:50:53;26.70;48.10
36652;DHT22;53334;51.976;20.144;2023-04-25T02:53:26;26.70;48.30
36652;DHT22;53334;51.976;20.144;2023-04-25T02:56:01;26.70;48.40
36652;DHT22;53334;51.976;20.144;2023-04-25T02:58:34;26.70;48.30
36652;DHT22;53334;51.976;20.144;2023-04-25T03:01:08;26.70;48.20
36652;DHT22;53334;51.976;20.144;2023-04-25T03:03:41;26.70;48.20
36652;DHT22;53334;51.976;20.144;2023-04-25T03:06:15;26.60;48.10
36652;DHT22;53334;51.976;20.144;2023-04-25T03:08:48;26.60;48.20
36652;DHT22;53334;51.976;20.144;2023-04-25T03:11:25;26.70;48.30
36652;DHT22;53334;51.976;20.144;2023-04-25T03:13:58;26.60;48.20
36652;DHT22;53334;51.976;20.144;2023-04-25T03:16:32;26.70;48.30
36652;DHT22;53334;51.976;20.144;2023-04-25T03:19:05;26.60;48.20
36652;DHT22;53334;51.976;20.144;2023-04-25T03:21:39;26.60;48.30
36652;DHT22;53334;51.976;20.144;2023-04-25T03:24:12;26.60;48.20
36652;DHT22;53334;51.976;20.144;2023-04-25T03:26:47;26.60;48.20
36652;DHT22;53334;51.976;20.144;2023-04-25T03:29:20;26.60;48.20
36652;DHT22;53334;51.976;20.144;2023-04-25T03:31:56;26.60;48.20
36652;DHT22;53334;51.976;20.144;2023-04-25T03:34:30;26.60;48.30
36652;DHT22;53334;51.976;20.144;2023-04-25T03:37:03;26.60;48.30
36652;DHT22;53334;51.976;20.144;2023-04-25T03:39:41;26.60;48.20
36652;DHT22;53334;51.976;20.144;2023-04-25T03:42:16;26.60;48.30
36652;DHT22;53334;51.976;20.144;2023-04-25T03:44:51;26.60;48.20
36652;DHT22;53334;51.976;20.144;2023-04-25T03:47:25;26.60;48.30
36652;DHT22;53334;51.976;20.144;2023-04-25T03:49:58;26.60;48.30
36652;DHT22;53334;51.976;20.144;2023-04-25T03:52:34;26.60;48.60
36652;DHT22;53334;51.976;20.144;2023-04-25T03:55:08;26.60;48.30
36652;DHT22;53334;51.976;20.144;2023-04-25T03:57:43;26.60;48.20
36652;DHT22;53334;51.976;20.144;2023-04-25T04:00:16;26.60;48.30
36652;DHT22;53334;51.976;20.144;2023-04-25T04:02:49;26.60;48.30
36652;DHT22;53334;51.976;20.144;2023-04-25T04:05:23;26.60;48.20
36652;DHT22;53334;51.976;20.144;2023-04-25T04:08:00;26.60;48.20
36652;DHT22;53334;51.976;20.144;2023-04-25T04:10:34;26.60;48.20
36652;DHT22;53334;51.976;20.144;2023-04-25T04:13:08;26.60;48.20
36652;DHT22;53334;51.976;20.144;2023-04-25T04:15:42;26.60;48.20
36652;DHT22;53334;51.976;20.144;2023-04-25T04:18:15;26.60;48.20
36652;DHT22;53334;51.976;20.144;2023-04-25T04:20:49;26.60;48.40
36652;DHT22;53334;51.976;20.144;2023-04-25T04:23:22;26.60;48.40
36652;DHT22;53334;51.976;20.144;2023-04-25T04:25:56;26.60;48.40
36652;DHT22;53334;51.976;20.144;2023-04-25T04:28:49;26.60;48.40
36652;DHT22;53334;51.976;20.144;2023-04-25T04:31:44;26.60;48.40
36652;DHT22;53334;51.976;20.144;2023-04-25T04:34:17;26.60;48.40
36652;DHT22;53334;51.976;20.144;2023-04-25T04:36:51;26.60;48.30
36652;DHT22;53334;51.976;20.144;2023-04-25T04:39:25;26.60;48.30
36652;DHT22;53334;51.976;20.144;2023-04-25T04:42:08;26.60;48.40
36652;DHT22;53334;51.976;20.144;2023-04-25T04:45:05;26.60;48.40
36652;DHT22;53334;51.976;20.144;2023-04-25T04:48:12;26.70;48.50
36652;DHT22;53334;51.976;20.144;2023-04-25T04:51:04;26.70;48.40
36652;DHT22;53334;51.976;20.144;2023-04-25T04:53:54;26.70;48.40
36652;DHT22;53334;51.976;20.144;2023-04-25T04:56:48;26.70;48.20
36652;DHT22;53334;51.976;20.144;2023-04-25T04:59:31;26.70;48.10
36652;DHT22;53334;51.976;20.144;2023-04-25T05:02:19;26.70;48.10
36652;DHT22;53334;51.976;20.144;2023-04-25T05:05:06;26.70;48.10
36652;DHT22;53334;51.976;20.144;2023-04-25T05:07:58;26.70;48.00
36652;DHT22;53334;51.976;20.144;2023-04-25T05:10:57;26.70;48.00
36652;DHT22;53334;51.976;20.144;2023-04-25T05:13:45;26.70;47.90
36652;DHT22;53334;51.976;20.144;2023-04-25T05:16:33;26.70;47.90
36652;DHT22;53334;51.976;20.144;2023-04-25T05:19:41;26.70;47.90
36652;DHT22;53334;51.976;20.144;2023-04-25T05:22:49;26.80;47.90
36652;DHT22;53334;51.976;20.144;2023-04-25T05:25:38;26.80;48.10
36652;DHT22;53334;51.976;20.144;2023-04-25T05:28:18;26.70;47.90
36652;DHT22;53334;51.976;20.144;2023-04-25T05:31:17;26.80;48.00
36652;DHT22;53334;51.976;20.144;2023-04-25T05:34:11;26.70;48.00
36652;DHT22;53334;51.976;20.144;2023-04-25T05:37:02;26.80;48.20
36652;DHT22;53334;51.976;20.144;2023-04-25T05:39:37;26.80;48.60
36652;DHT22;53334;51.976;20.144;2023-04-25T05:42:31;26.80;48.90
36652;DHT22;53334;51.976;20.144;2023-04-25T05:45:28;26.80;49.10
36652;DHT22;53334;51.976;20.144;2023-04-25T05:48:39;26.80;49.10
36652;DHT22;53334;51.976;20.144;2023-04-25T05:51:42;26.80;49.40
36652;DHT22;53334;51.976;20.144;2023-04-25T05:54:32;26.80;49.70
36652;DHT22;53334;51.976;20.144;2023-04-25T05:57:06;26.80;49.60
36652;DHT22;53334;51.976;20.144;2023-04-25T05:59:39;26.90;50.10
36652;DHT22;53334;51.976;20.144;2023-04-25T06:02:12;26.80;49.10
36652;DHT22;53334;51.976;20.144;2023-04-25T06:04:46;26.80;48.80
36652;DHT22;53334;51.976;20.144;2023-04-25T06:07:20;26.80;48.60
36652;DHT22;53334;51.976;20.144;2023-04-25T06:09:55;26.90;48.30
36652;DHT22;53334;51.976;20.144;2023-04-25T06:12:30;26.90;48.00
36652;DHT22;53334;51.976;20.144;2023-04-25T06:15:04;26.90;47.70
36652;DHT22;53334;51.976;20.144;2023-04-25T06:17:57;26.90;47.40
36652;DHT22;53334;51.976;20.144;2023-04-25T06:20:32;26.90;47.00
36652;DHT22;53334;51.976;20.144;2023-04-25T06:23:05;26.90;46.90
36652;DHT22;53334;51.976;20.144;2023-04-25T06:25:51;26.80;46.70
36652;DHT22;53334;51.976;20.144;2023-04-25T06:28:25;26.80;46.70
36652;DHT22;53334;51.976;20.144;2023-04-25T06:30:59;26.80;46.50
36652;DHT22;53334;51.976;20.144;2023-04-25T06:33:33;26.80;46.50
36652;DHT22;53334;51.976;20.144;2023-04-25T06:36:07;26.80;46.50
36652;DHT22;53334;51.976;20.144;2023-04-25T06:38:42;26.80;46.20
36652;DHT22;53334;51.976;20.144;2023-04-25T06:41:17;26.80;46.00
36652;DHT22;53334;51.976;20.144;2023-04-25T06:43:50;26.90;45.80
36652;DHT22;53334;51.976;20.144;2023-04-25T06:46:29;26.80;45.80
36652;DHT22;53334;51.976;20.144;2023-04-25T06:49:03;26.80;45.70
36652;DHT22;53334;51.976;20.144;2023-04-25T06:51:37;26.90;45.50
36652;DHT22;53334;51.976;20.144;2023-04-25T06:54:11;26.90;45.40
36652;DHT22;53334;51.976;20.144;2023-04-25T06:56:56;26.80;45.20
36652;DHT22;53334;51.976;20.144;2023-04-25T06:59:31;26.90;45.10
36652;DHT22;53334;51.976;20.144;2023-04-25T07:02:05;26.80;45.10
36652;DHT22;53334;51.976;20.144;2023-04-25T07:04:38;26.80;45.00
36652;DHT22;53334;51.976;20.144;2023-04-25T07:07:13;26.80;45.10
36652;DHT22;53334;51.976;20.144;2023-04-25T07:09:56;26.80;45.20
36652;DHT22;53334;51.976;20.144;2023-04-25T07:12:31;26.80;45.40
36652;DHT22;53334;51.976;20.144;2023-04-25T07:15:05;26.80;45.50
36652;DHT22;53334;51.976;20.144;2023-04-25T07:17:40;26.80;45.80
36652;DHT22;53334;51.976;20.144;2023-04-25T07:20:13;26.90;46.10
36652;DHT22;53334;51.976;20.144;2023-04-25T07:22:48;26.90;46.20
36652;DHT22;53334;51.976;20.144;2023-04-25T07:25:22;26.90;46.30
36652;DHT22;53334;51.976;20.144;2023-04-25T07:27:56;26.90;46.40
36652;DHT22;53334;51.976;20.144;2023-04-25T07:30:31;26.90;46.60
36652;DHT22;53334;51.976;20.144;2023-04-25T07:33:07;26.90;46.70
36652;DHT22;53334;51.976;20.144;2023-04-25T07:35:41;27.00;46.80
36652;DHT22;53334;51.976;20.144;2023-04-25T07:38:15;27.00;46.90
36652;DHT22;53334;51.976;20.144;2023-04-25T07:40:49;27.00;46.90
36652;DHT22;53334;51.976;20.144;2023-04-25T07:43:24;27.00;47.00
36652;DHT22;53334;51.976;20.144;2023-04-25T07:46:24;27.00;46.80
36652;DHT22;53334;51.976;20.144;2023-04-25T07:48:58;27.00;46.70
36652;DHT22;53334;51.976;20.144;2023-04-25T07:51:31;27.00;46.60
36652;DHT22;53334;51.976;20.144;2023-04-25T07:54:12;27.00;46.40
36652;DHT22;53334;51.976;20.144;2023-04-25T07:56:50;27.00;46.30
36652;DHT22;53334;51.976;20.144;2023-04-25T07:59:32;27.00;46.20
36652;DHT22;53334;51.976;20.144;2023-04-25T08:02:07;27.10;46.80
36652;DHT22;53334;51.976;20.144;2023-04-25T08:04:40;27.00;46.50
36652;DHT22;53334;51.976;20.144;2023-04-25T08:07:17;27.00;46.30
36652;DHT22;53334;51.976;20.144;2023-04-25T08:09:55;27.00;46.30
36652;DHT22;53334;51.976;20.144;2023-04-25T08:12:34;27.00;45.70
36652;DHT22;53334;51.976;20.144;2023-04-25T08:15:11;27.00;45.40
36652;DHT22;53334;51.976;20.144;2023-04-25T08:17:46;27.00;45.10
36652;DHT22;53334;51.976;20.144;2023-04-25T08:20:20;27.00;45.10
36652;DHT22;53334;51.976;20.144;2023-04-25T08:22:55;27.00;45.10
36652;DHT22;53334;51.976;20.144;2023-04-25T08:25:54;27.00;45.00
36652;DHT22;53334;51.976;20.144;2023-04-25T08:28:31;27.00;44.70
36652;DHT22;53334;51.976;20.144;2023-04-25T08:31:07;26.90;40.00
36652;DHT22;53334;51.976;20.144;2023-04-25T08:33:52;26.90;38.40
36652;DHT22;53334;51.976;20.144;2023-04-25T08:36:38;26.70;36.00
36652;DHT22;53334;51.976;20.144;2023-04-25T08:39:26;26.60;36.00
36652;DHT22;53334;51.976;20.144;2023-04-25T08:42:21;26.60;36.20
36652;DHT22;53334;51.976;20.144;2023-04-25T08:44:56;26.60;36.20
36652;DHT22;53334;51.976;20.144;2023-04-25T08:47:37;26.60;36.20
36652;DHT22;53334;51.976;20.144;2023-04-25T08:50:11;26.50;36.50
36652;DHT22;53334;51.976;20.144;2023-04-25T08:52:44;26.60;36.80
36652;DHT22;53334;51.976;20.144;2023-04-25T08:55:20;26.50;37.50
36652;DHT22;53334;51.976;20.144;2023-04-25T08:57:57;26.60;37.60
36652;DHT22;53334;51.976;20.144;2023-04-25T09:00:33;26.50;37.40
36652;DHT22;53334;51.976;20.144;2023-04-25T09:03:08;26.50;37.70
36652;DHT22;53334;51.976;20.144;2023-04-25T09:05:42;26.60;37.70
36652;DHT22;53334;51.976;20.144;2023-04-25T09:08:20;26.60;37.80
36652;DHT22;53334;51.976;20.144;2023-04-25T09:10:53;26.60;38.00
36652;DHT22;53334;51.976;20.144;2023-04-25T09:13:27;26.60;37.90
36652;DHT22;53334;51.976;20.144;2023-04-25T09:16:19;26.60;39.20
36652;DHT22;53334;51.976;20.144;2023-04-25T09:19:21;26.60;38.50
36652;DHT22;53334;51.976;20.144;2023-04-25T09:22:17;26.60;38.60
36652;DHT22;53334;51.976;20.144;2023-04-25T09:24:53;26.60;38.00
36652;DHT22;53334;51.976;20.144;2023-04-25T09:27:30;26.60;37.90
36652;DHT22;53334;51.976;20.144;2023-04-25T09:30:14;26.60;37.90
36652;DHT22;53334;51.976;20.144;2023-04-25T09:33:11;26.60;37.80
36652;DHT22;53334;51.976;20.144;2023-04-25T09:35:50;26.50;37.80
36652;DHT22;53334;51.976;20.144;2023-04-25T09:38:41;26.60;37.70
36652;DHT22;53334;51.976;20.144;2023-04-25T09:41:23;26.50;37.70
36652;DHT22;53334;51.976;20.144;2023-04-25T09:43:59;26.50;37.40
36652;DHT22;53334;51.976;20.144;2023-04-25T09:46:36;26.50;37.40
36652;DHT22;53334;51.976;20.144;2023-04-25T09:49:20;26.50;37.80
36652;DHT22;53334;51.976;20.144;2023-04-25T09:52:16;26.50;37.70
36652;DHT22;53334;51.976;20.144;2023-04-25T09:55:01;26.40;37.60
36652;DHT22;53334;51.976;20.144;2023-04-25T09:57:38;26.50;37.70
36652;DHT22;53334;51.976;20.144;2023-04-25T10:00:13;26.50;37.60
36652;DHT22;53334;51.976;20.144;2023-04-25T10:02:47;26.40;37.50
36652;DHT22;53334;51.976;20.144;2023-04-25T10:05:54;26.40;37.40
36652;DHT22;53334;51.976;20.144;2023-04-25T10:08:32;26.40;37.70
36652;DHT22;53334;51.976;20.144;2023-04-25T10:11:07;26.40;38.00
36652;DHT22;53334;51.976;20.144;2023-04-25T10:13:41;26.40;39.00
36652;DHT22;53334;51.976;20.144;2023-04-25T10:16:14;26.50;38.90
36652;DHT22;53334;51.976;20.144;2023-04-25T10:18:48;26.40;38.90
36652;DHT22;53334;51.976;20.144;2023-04-25T10:21:23;26.50;39.30
36652;DHT22;53334;51.976;20.144;2023-04-25T10:24:00;26.50;39.50
36652;DHT22;53334;51.976;20.144;2023-04-25T10:26:34;26.50;40.10
36652;DHT22;53334;51.976;20.144;2023-04-25T10:29:07;26.50;40.40
36652;DHT22;53334;51.976;20.144;2023-04-25T10:31:45;26.50;40.60
36652;DHT22;53334;51.976;20.144;2023-04-25T10:34:24;26.50;41.10
36652;DHT22;53334;51.976;20.144;2023-04-25T10:36:57;26.50;41.00
36652;DHT22;53334;51.976;20.144;2023-04-25T10:39:38;26.50;40.70
36652;DHT22;53334;51.976;20.144;2023-04-25T10:42:11;26.50;40.60
36652;DHT22;53334;51.976;20.144;2023-04-25T10:45:01;26.50;40.70
36652;DHT22;53334;51.976;20.144;2023-04-25T10:47:36;26.50;40.90
36652;DHT22;53334;51.976;20.144;2023-04-25T10:50:16;26.50;40.40
36652;DHT22;53334;51.976;20.144;2023-04-25T10:52:50;26.50;40.30
36652;DHT22;53334;51.976;20.144;2023-04-25T10:55:25;26.50;40.10
36652;DHT22;53334;51.976;20.144;2023-04-25T10:57:58;26.50;40.10
36652;DHT22;53334;51.976;20.144;2023-04-25T11:00:35;26.50;39.90
36652;DHT22;53334;51.976;20.144;2023-04-25T11:03:27;26.50;39.70
36652;DHT22;53334;51.976;20.144;2023-04-25T11:06:03;26.50;39.60
36652;DHT22;53334;51.976;20.144;2023-04-25T11:08:47;26.50;40.20
36652;DHT22;53334;51.976;20.144;2023-04-25T11:11:22;26.50;39.60
36652;DHT22;53334;51.976;20.144;2023-04-25T11:13:56;26.50;39.30
36652;DHT22;53334;51.976;20.144;2023-04-25T11:16:29;26.50;39.30
36652;DHT22;53334;51.976;20.144;2023-04-25T11:19:03;26.50;38.80
36652;DHT22;53334;51.976;20.144;2023-04-25T11:21:37;26.50;38.30
36652;DHT22;53334;51.976;20.144;2023-04-25T11:24:10;26.50;38.10
36652;DHT22;53334;51.976;20.144;2023-04-25T11:26:46;26.50;37.80
36652;DHT22;53334;51.976;20.144;2023-04-25T11:29:22;26.50;37.60
36652;DHT22;53334;51.976;20.144;2023-04-25T11:31:55;26.40;37.50
36652;DHT22;53334;51.976;20.144;2023-04-25T11:34:31;26.40;37.50
36652;DHT22;53334;51.976;20.144;2023-04-25T11:37:05;26.50;37.40
36652;DHT22;53334;51.976;20.144;2023-04-25T11:39:42;26.40;37.40
36652;DHT22;53334;51.976;20.144;2023-04-25T11:42:17;26.40;37.90
36652;DHT22;53334;51.976;20.144;2023-04-25T11:44:52;26.40;37.30
36652;DHT22;53334;51.976;20.144;2023-04-25T11:47:28;26.40;37.10
36652;DHT22;53334;51.976;20.144;2023-04-25T11:50:03;26.40;37.20
36652;DHT22;53334;51.976;20.144;2023-04-25T11:52:38;26.40;37.20
36652;DHT22;53334;51.976;20.144;2023-04-25T11:55:13;26.40;37.30
36652;DHT22;53334;51.976;20.144;2023-04-25T11:57:49;26.40;37.20
36652;DHT22;53334;51.976;20.144;2023-04-25T12:00:24;26.40;37.30
36652;DHT22;53334;51.976;20.144;2023-04-25T12:02:58;26.30;37.70
36652;DHT22;53334;51.976;20.144;2023-04-25T12:05:31;26.40;37.80
36652;DHT22;53334;51.976;20.144;2023-04-25T12:08:13;26.40;38.00
36652;DHT22;53334;51.976;20.144;2023-04-25T12:10:46;26.40;38.50
36652;DHT22;53334;51.976;20.144;2023-04-25T12:13:23;26.40;38.80
36652;DHT22;53334;51.976;20.144;2023-04-25T12:15:56;26.40;39.30
36652;DHT22;53334;51.976;20.144;2023-04-25T12:18:30;26.40;39.90
36652;DHT22;53334;51.976;20.144;2023-04-25T12:21:04;26.40;40.20
36652;DHT22;53334;51.976;20.144;2023-04-25T12:23:39;26.40;40.60
36652;DHT22;53334;51.976;20.144;2023-04-25T12:26:13;26.40;40.70
36652;DHT22;53334;51.976;20.144;2023-04-25T12:28:48;26.40;41.00
36652;DHT22;53334;51.976;20.144;2023-04-25T12:31:22;26.50;40.80
36652;DHT22;53334;51.976;20.144;2023-04-25T12:33:56;26.50;40.70
36652;DHT22;53334;51.976;20.144;2023-04-25T12:36:30;26.40;40.60
36652;DHT22;53334;51.976;20.144;2023-04-25T12:39:03;26.50;40.50
36652;DHT22;53334;51.976;20.144;2023-04-25T12:41:36;26.40;40.20
36652;DHT22;53334;51.976;20.144;2023-04-25T12:44:11;26.40;39.70
36652;DHT22;53334;51.976;20.144;2023-04-25T12:46:45;26.40;39.10
36652;DHT22;53334;51.976;20.144;2023-04-25T12:49:18;26.40;38.90
36652;DHT22;53334;51.976;20.144;2023-04-25T12:51:52;26.40;38.30
36652;DHT22;53334;51.976;20.144;2023-04-25T12:54:25;26.40;37.50
36652;DHT22;53334;51.976;20.144;2023-04-25T12:56:58;26.40;37.30
36652;DHT22;53334;51.976;20.144;2023-04-25T12:59:36;26.40;37.20
36652;DHT22;53334;51.976;20.144;2023-04-25T13:02:09;26.40;36.70
36652;DHT22;53334;51.976;20.144;2023-04-25T13:04:43;26.40;36.40
36652;DHT22;53334;51.976;20.144;2023-04-25T13:07:17;26.40;36.50
36652;DHT22;53334;51.976;20.144;2023-04-25T13:09:50;26.40;36.20
36652;DHT22;53334;51.976;20.144;2023-04-25T13:12:23;26.30;36.70
36652;DHT22;53334;51.976;20.144;2023-04-25T13:14:58;26.30;36.60
36652;DHT22;53334;51.976;20.144;2023-04-25T13:17:31;26.30;35.90
36652;DHT22;53334;51.976;20.144;2023-04-25T13:20:05;26.30;35.90
36652;DHT22;53334;51.976;20.144;2023-04-25T13:22:41;26.30;36.00
36652;DHT22;53334;51.976;20.144;2023-04-25T13:25:15;26.30;36.40
36652;DHT22;53334;51.976;20.144;2023-04-25T13:27:48;26.20;36.30
36652;DHT22;53334;51.976;20.144;2023-04-25T13:30:23;26.30;36.70
36652;DHT22;53334;51.976;20.144;2023-04-25T13:32:56;26.30;36.60
36652;DHT22;53334;51.976;20.144;2023-04-25T13:35:35;26.30;36.70
36652;DHT22;53334;51.976;20.144;2023-04-25T13:38:09;26.30;36.80
36652;DHT22;53334;51.976;20.144;2023-04-25T13:40:42;26.30;37.40
36652;DHT22;53334;51.976;20.144;2023-04-25T13:43:16;26.30;37.90
36652;DHT22;53334;51.976;20.144;2023-04-25T13:45:51;26.30;38.90
36652;DHT22;53334;51.976;20.144;2023-04-25T13:48:24;26.30;39.50
36652;DHT22;53334;51.976;20.144;2023-04-25T13:50:58;26.40;40.20
36652;DHT22;53334;51.976;20.144;2023-04-25T13:53:31;26.40;40.80
36652;DHT22;53334;51.976;20.144;2023-04-25T13:56:05;26.40;41.30
36652;DHT22;53334;51.976;20.144;2023-04-25T13:58:38;26.40;41.80
36652;DHT22;53334;51.976;20.144;2023-04-25T14:01:13;26.40;42.30
36652;DHT22;53334;51.976;20.144;2023-04-25T14:03:47;26.40;42.30
36652;DHT22;53334;51.976;20.144;2023-04-25T14:06:20;26.50;42.90
36652;DHT22;53334;51.976;20.144;2023-04-25T14:08:56;26.50;43.10
36652;DHT22;53334;51.976;20.144;2023-04-25T14:11:29;26.50;43.40
36652;DHT22;53334;51.976;20.144;2023-04-25T14:14:02;26.60;43.70
36652;DHT22;53334;51.976;20.144;2023-04-25T14:16:37;26.60;44.00
36652;DHT22;53334;51.976;20.144;2023-04-25T14:19:11;26.60;43.90
36652;DHT22;53334;51.976;20.144;2023-04-25T14:21:44;26.60;44.00
36652;DHT22;53334;51.976;20.144;2023-04-25T14:24:18;26.60;44.10
36652;DHT22;53334;51.976;20.144;2023-04-25T14:26:51;26.60;44.30
36652;DHT22;53334;51.976;20.144;2023-04-25T14:29:24;26.60;44.20
36652;DHT22;53334;51.976;20.144;2023-04-25T14:31:59;26.60;44.20
36652;DHT22;53334;51.976;20.144;2023-04-25T14:34:32;26.60;44.10
36652;DHT22;53334;51.976;20.144;2023-04-25T14:37:06;26.70;44.10
36652;DHT22;53334;51.976;20.144;2023-04-25T14:39:39;26.70;43.60
36652;DHT22;53334;51.976;20.144;2023-04-25T14:42:12;26.60;43.10
36652;DHT22;53334;51.976;20.144;2023-04-25T14:44:46;26.60;42.50
36652;DHT22;53334;51.976;20.144;2023-04-25T14:47:21;26.70;42.40
36652;DHT22;53334;51.976;20.144;2023-04-25T14:49:54;26.70;42.10
36652;DHT22;53334;51.976;20.144;2023-04-25T14:52:27;26.70;41.90
36652;DHT22;53334;51.976;20.144;2023-04-25T14:55:01;26.70;41.60
36652;DHT22;53334;51.976;20.144;2023-04-25T14:57:37;26.60;41.30
36652;DHT22;53334;51.976;20.144;2023-04-25T15:00:12;26.60;41.00
36652;DHT22;53334;51.976;20.144;2023-04-25T15:02:49;26.60;40.90
36652;DHT22;53334;51.976;20.144;2023-04-25T15:05:23;26.60;40.80
36652;DHT22;53334;51.976;20.144;2023-04-25T15:07:56;26.60;40.80
36652;DHT22;53334;51.976;20.144;2023-04-25T15:10:30;26.60;40.70
36652;DHT22;53334;51.976;20.144;2023-04-25T15:13:03;26.60;40.60
36652;DHT22;53334;51.976;20.144;2023-04-25T15:15:36;26.60;40.70
36652;DHT22;53334;51.976;20.144;2023-04-25T15:18:11;26.60;40.70
36652;DHT22;53334;51.976;20.144;2023-04-25T15:20:44;26.60;40.80
36652;DHT22;53334;51.976;20.144;2023-04-25T15:23:18;26.60;40.90
36652;DHT22;53334;51.976;20.144;2023-04-25T15:25:52;26.60;40.90
36652;DHT22;53334;51.976;20.144;2023-04-25T15:28:25;26.60;41.10
36652;DHT22;53334;51.976;20.144;2023-04-25T15:30:58;26.60;41.10
36652;DHT22;53334;51.976;20.144;2023-04-25T15:33:33;26.60;41.20
36652;DHT22;53334;51.976;20.144;2023-04-25T15:36:06;26.60;41.20
36652;DHT22;53334;51.976;20.144;2023-04-25T15:38:40;26.60;41.40
36652;DHT22;53334;51.976;20.144;2023-04-25T15:41:13;26.60;41.60
36652;DHT22;53334;51.976;20.144;2023-04-25T15:43:47;26.60;41.80
36652;DHT22;53334;51.976;20.144;2023-04-25T15:46:21;26.60;42.00
36652;DHT22;53334;51.976;20.144;2023-04-25T15:48:56;26.60;42.20
36652;DHT22;53334;51.976;20.144;2023-04-25T15:51:29;26.60;42.40
36652;DHT22;53334;51.976;20.144;2023-04-25T15:54:03;26.60;42.40
36652;DHT22;53334;51.976;20.144;2023-04-25T15:56:36;26.60;42.40
36652;DHT22;53334;51.976;20.144;2023-04-25T15:59:09;26.60;42.40
36652;DHT22;53334;51.976;20.144;2023-04-25T16:01:43;26.60;42.50
36652;DHT22;53334;51.976;20.144;2023-04-25T16:04:18;26.60;42.80
36652;DHT22;53334;51.976;20.144;2023-04-25T16:06:52;26.60;44.30
36652;DHT22;53334;51.976;20.144;2023-04-25T16:09:25;26.60;45.00
36652;DHT22;53334;51.976;20.144;2023-04-25T16:11:58;26.60;45.30
36652;DHT22;53334;51.976;20.144;2023-04-25T16:14:32;26.60;44.90